createdAt,value
2022-09-15T00:00:00.766Z,5.72
2022-09-15T00:02:27.488Z,5.70
2022-09-15T00:04:54.290Z,7.07
2022-09-15T00:07:20.924Z,6.85
2022-09-15T00:09:47.556Z,6.18
2022-09-15T00:12:14.215Z,5.82
2022-09-15T00:14:41.406Z,5.95
2022-09-15T00:17:08.197Z,5.85
2022-09-15T00:19:35.661Z,5.45
2022-09-15T00:22:02.308Z,5.45
2022-09-15T00:24:28.974Z,5.53
2022-09-15T00:26:56.719Z,5.78
2022-09-15T00:29:23.365Z,6.00
2022-09-15T00:31:50.346Z,6.40
2022-09-15T00:34:17.056Z,6.18
2022-09-15T00:36:43.696Z,6.55
2022-09-15T00:39:10.682Z,7.13
2022-09-15T00:41:39.605Z,6.30
2022-09-15T00:44:16.413Z,7.30
2022-09-15T00:46:58.669Z,6.68
2022-09-15T00:49:36.147Z,6.80
2022-09-15T00:52:08.246Z,7.07
2022-09-15T00:54:45.751Z,6.47
2022-09-15T00:57:19.290Z,7.10
2022-09-15T00:59:47.563Z,7.00
2022-09-15T01:02:22.100Z,6.10
2022-09-15T01:04:53.705Z,6.32
2022-09-15T01:07:32.963Z,6.95
2022-09-15T01:10:02.891Z,6.72
2022-09-15T01:12:29.546Z,6.55
2022-09-15T01:14:56.199Z,6.90
2022-09-15T01:17:30.041Z,6.55
2022-09-15T01:20:18.283Z,6.13
2022-09-15T01:23:06.878Z,6.00
2022-09-15T01:25:55.413Z,6.15
2022-09-15T01:28:43.836Z,6.40
2022-09-15T01:31:25.428Z,6.70
2022-09-15T01:34:16.803Z,6.25
2022-09-15T01:36:52.530Z,5.97
2022-09-15T01:39:25.779Z,5.75
2022-09-15T01:42:06.225Z,6.68
2022-09-15T01:44:41.762Z,7.20
2022-09-15T01:47:11.876Z,5.78
2022-09-15T01:49:46.070Z,6.10
2022-09-15T01:52:17.120Z,5.97
2022-09-15T01:54:48.999Z,6.15
2022-09-15T01:57:22.812Z,5.95
2022-09-15T01:59:50.863Z,6.10
2022-09-15T02:02:26.081Z,6.00
2022-09-15T02:05:03.738Z,5.38
2022-09-15T02:07:42.585Z,5.85
2022-09-15T02:10:16.623Z,5.90
2022-09-15T02:12:47.937Z,5.85
2022-09-15T02:15:21.322Z,6.07
2022-09-15T02:17:54.002Z,5.95
2022-09-15T02:20:38.899Z,5.65
2022-09-15T02:23:12.146Z,6.10
2022-09-15T02:25:43.290Z,6.50
2022-09-15T02:28:13.198Z,5.78
2022-09-15T02:30:41.954Z,6.43
2022-09-15T02:33:19.739Z,6.55
2022-09-15T02:35:47.437Z,6.55
2022-09-15T02:38:15.080Z,5.97
2022-09-15T02:40:44.383Z,5.55
2022-09-15T02:43:13.786Z,4.82
2022-09-15T02:45:40.846Z,5.15
2022-09-15T02:48:10.463Z,6.60
2022-09-15T02:50:38.239Z,4.57
2022-09-15T02:53:05.409Z,4.60
2022-09-15T02:55:32.190Z,4.43
2022-09-15T02:57:59.481Z,4.80
2022-09-15T03:00:28.321Z,4.05
2022-09-15T03:02:56.140Z,4.38
2022-09-15T03:05:28.537Z,4.70
2022-09-15T03:07:56.038Z,4.47
2022-09-15T03:10:24.364Z,4.35
2022-09-15T03:12:52.981Z,4.05
2022-09-15T03:15:22.423Z,4.22
2022-09-15T03:17:49.666Z,4.15
2022-09-15T03:20:22.377Z,3.75
2022-09-15T03:22:49.613Z,4.18
2022-09-15T03:25:17.363Z,4.50
2022-09-15T03:27:44.211Z,4.20
2022-09-15T03:30:11.600Z,4.30
2022-09-15T03:32:38.273Z,4.22
2022-09-15T03:35:06.708Z,4.35
2022-09-15T03:37:33.772Z,3.97
2022-09-15T03:40:00.523Z,4.55
2022-09-15T03:42:27.224Z,4.80
2022-09-15T03:44:53.874Z,4.80
2022-09-15T03:47:20.484Z,5.25
2022-09-15T03:49:47.556Z,5.00
2022-09-15T03:52:14.189Z,5.38
2022-09-15T03:54:41.354Z,6.25
2022-09-15T03:57:08.044Z,6.13
2022-09-15T03:59:34.688Z,6.63
2022-09-15T04:02:01.456Z,6.40
2022-09-15T04:04:28.424Z,7.55
2022-09-15T04:06:55.056Z,8.38
2022-09-15T04:09:21.670Z,9.15
2022-09-15T04:11:48.441Z,8.10
2022-09-15T04:14:15.912Z,8.45
2022-09-15T04:16:42.689Z,9.20
2022-09-15T04:19:09.426Z,10.77
2022-09-15T04:21:36.166Z,9.45
2022-09-15T04:24:04.689Z,9.90
2022-09-15T04:26:33.933Z,11.35
2022-09-15T04:29:04.545Z,10.82
2022-09-15T04:31:33.114Z,10.75
2022-09-15T04:34:00.058Z,11.00
2022-09-15T04:36:28.311Z,12.98
2022-09-15T04:38:56.037Z,13.05
2022-09-15T04:41:23.621Z,12.43
2022-09-15T04:43:50.503Z,13.10
2022-09-15T04:46:18.336Z,13.93
2022-09-15T04:48:46.179Z,12.73
2022-09-15T04:51:15.861Z,14.40
2022-09-15T04:53:43.063Z,12.93
2022-09-15T04:56:14.931Z,16.52
2022-09-15T04:58:44.441Z,14.32
2022-09-15T05:01:13.444Z,13.45
2022-09-15T05:03:41.005Z,13.25
2022-09-15T05:06:09.973Z,13.85
2022-09-15T05:08:36.661Z,12.93
2022-09-15T05:11:06.180Z,12.70
2022-09-15T05:13:34.310Z,12.48
2022-09-15T05:16:22.401Z,13.00
2022-09-15T05:18:50.450Z,13.32
2022-09-15T05:21:19.142Z,12.45
2022-09-15T05:23:46.439Z,11.18
2022-09-15T05:26:16.445Z,11.10
2022-09-15T05:28:43.515Z,12.63
2022-09-15T05:31:13.098Z,11.80
2022-09-15T05:33:39.971Z,10.73
2022-09-15T05:36:07.243Z,11.43
2022-09-15T05:38:33.903Z,12.40
2022-09-15T05:41:08.424Z,11.55
2022-09-15T05:43:36.325Z,10.75
2022-09-15T05:46:03.493Z,11.15
2022-09-15T05:48:30.358Z,11.00
2022-09-15T05:50:58.159Z,11.70
2022-09-15T05:53:26.152Z,12.10
2022-09-15T05:55:57.788Z,11.82
2022-09-15T05:58:25.420Z,11.35
2022-09-15T06:00:55.951Z,11.73
2022-09-15T06:03:27.479Z,11.55
2022-09-15T06:06:00.633Z,11.50
2022-09-15T06:08:31.852Z,11.23
2022-09-15T06:11:07.366Z,11.43
2022-09-15T06:13:34.254Z,11.32
2022-09-15T06:16:12.292Z,9.43
2022-09-15T06:18:40.038Z,8.98
2022-09-15T06:21:09.332Z,8.20
2022-09-15T06:23:36.781Z,8.20
2022-09-15T06:26:15.130Z,7.35
2022-09-15T06:28:47.339Z,7.03
2022-09-15T06:31:14.903Z,6.78
2022-09-15T06:33:43.935Z,6.55
2022-09-15T06:36:12.199Z,7.00
2022-09-15T06:38:39.759Z,6.70
2022-09-15T06:41:06.976Z,6.15
2022-09-15T06:43:34.288Z,6.45
2022-09-15T06:46:21.426Z,6.18
2022-09-15T06:48:48.886Z,6.93
2022-09-15T06:51:17.378Z,6.63
2022-09-15T06:53:44.655Z,6.47
2022-09-15T06:56:19.393Z,7.20
2022-09-15T06:58:48.826Z,6.80
2022-09-15T07:01:22.337Z,6.38
2022-09-15T07:03:49.164Z,7.43
2022-09-15T07:06:15.858Z,6.35
2022-09-15T07:08:43.316Z,6.15
2022-09-15T07:11:10.751Z,6.43
2022-09-15T07:13:37.962Z,6.38
2022-09-15T07:16:06.498Z,6.40
2022-09-15T07:18:33.899Z,7.28
2022-09-15T07:21:06.435Z,6.07
2022-09-15T07:23:34.008Z,6.60
2022-09-15T07:26:17.428Z,6.65
2022-09-15T07:28:46.412Z,6.47
2022-09-15T07:31:15.783Z,6.90
2022-09-15T07:33:42.569Z,6.07
2022-09-15T07:36:10.267Z,6.35
2022-09-15T07:38:40.978Z,6.13
2022-09-15T07:41:19.009Z,6.10
2022-09-15T07:43:50.809Z,6.03
2022-09-15T07:46:18.822Z,6.30
2022-09-15T07:48:47.242Z,5.90
2022-09-15T07:51:15.080Z,6.03
2022-09-15T07:53:42.590Z,5.85
2022-09-15T07:56:09.462Z,6.30
2022-09-15T07:58:36.186Z,5.18
2022-09-15T08:01:09.086Z,5.00
2022-09-15T08:03:35.799Z,5.60
2022-09-15T08:06:03.442Z,5.55
2022-09-15T08:08:30.487Z,5.65
2022-09-15T08:10:58.167Z,6.07
2022-09-15T08:13:25.049Z,5.95
2022-09-15T08:15:52.451Z,5.43
2022-09-15T08:18:19.193Z,5.47
2022-09-15T08:20:45.875Z,5.35
2022-09-15T08:23:12.496Z,5.80
2022-09-15T08:25:39.429Z,4.85
2022-09-15T08:28:06.224Z,4.95
2022-09-15T08:30:33.003Z,5.00
2022-09-15T08:32:59.602Z,4.70
2022-09-15T08:35:26.259Z,4.90
2022-09-15T08:37:55.128Z,5.10
2022-09-15T08:40:27.634Z,5.00
2022-09-15T08:42:59.856Z,5.07
2022-09-15T08:45:30.426Z,4.72
2022-09-15T08:48:01.347Z,5.60
2022-09-15T08:50:31.126Z,4.55
2022-09-15T08:53:12.788Z,4.65
2022-09-15T08:55:48.633Z,4.40
2022-09-15T08:58:21.038Z,4.80
2022-09-15T09:00:57.894Z,5.03
2022-09-15T09:03:37.331Z,5.28
2022-09-15T09:06:28.143Z,5.78
2022-09-15T09:09:07.029Z,6.68
2022-09-15T09:12:03.758Z,6.45
2022-09-15T09:14:44.426Z,6.90
2022-09-15T09:17:39.558Z,6.43
2022-09-15T09:20:24.573Z,6.30
2022-09-15T09:22:53.957Z,6.10
2022-09-15T09:25:27.573Z,6.32
2022-09-15T09:27:58.011Z,5.88
2022-09-15T09:30:27.656Z,6.20
2022-09-15T09:33:18.734Z,5.60
2022-09-15T09:35:49.231Z,4.85
2022-09-15T09:38:37.723Z,5.00
2022-09-15T09:41:17.764Z,5.50
2022-09-15T09:43:47.385Z,5.00
2022-09-15T09:46:16.252Z,5.22
2022-09-15T09:49:02.746Z,5.38
2022-09-15T09:51:33.778Z,6.20
2022-09-15T09:54:12.587Z,5.75
2022-09-15T09:56:40.331Z,5.25
2022-09-15T09:59:33.858Z,6.30
2022-09-15T10:02:18.938Z,6.40
2022-09-15T10:04:47.902Z,7.03
2022-09-15T10:07:16.990Z,7.07
2022-09-15T10:09:58.406Z,6.80
2022-09-15T10:12:32.039Z,6.45
2022-09-15T10:15:08.402Z,7.45
2022-09-15T10:17:41.482Z,5.82
2022-09-15T10:20:28.176Z,7.10
2022-09-15T10:23:16.346Z,6.43
2022-09-15T10:25:59.206Z,6.32
2022-09-15T10:28:27.704Z,6.10
2022-09-15T10:31:13.270Z,7.32
2022-09-15T10:33:42.543Z,7.00
2022-09-15T10:36:15.400Z,6.25
2022-09-15T10:39:23.133Z,6.90
2022-09-15T10:42:28.596Z,6.82
2022-09-15T10:45:01.534Z,6.90
2022-09-15T10:47:52.901Z,7.10
2022-09-15T10:50:50.489Z,7.03
2022-09-15T10:53:25.567Z,8.20
2022-09-15T10:56:20.817Z,7.70
2022-09-15T10:59:05.266Z,8.37
2022-09-15T11:01:54.047Z,7.68
2022-09-15T11:04:39.430Z,7.70
2022-09-15T11:07:24.717Z,6.63
2022-09-15T11:10:14.642Z,8.37
2022-09-15T11:13:00.329Z,8.03
2022-09-15T11:15:54.644Z,7.67
2022-09-15T11:18:51.123Z,7.80
2022-09-15T11:21:32.401Z,7.72
2022-09-15T11:24:29.162Z,8.40
2022-09-15T11:27:07.468Z,7.72
2022-09-15T11:30:01.024Z,8.25
2022-09-15T11:32:46.288Z,8.30
2022-09-15T11:35:31.410Z,7.50
2022-09-15T11:38:12.953Z,8.05
2022-09-15T11:41:03.591Z,8.00
2022-09-15T11:43:52.300Z,7.45
2022-09-15T11:46:43.113Z,9.52
2022-09-15T11:49:17.216Z,7.97
2022-09-15T11:51:52.723Z,7.60
2022-09-15T11:54:31.547Z,6.85
2022-09-15T11:56:59.523Z,7.80
2022-09-15T11:59:39.078Z,7.40
2022-09-15T12:02:22.548Z,8.15
2022-09-15T12:05:17.489Z,8.25
2022-09-15T12:08:06.590Z,7.40
2022-09-15T12:10:55.015Z,8.27
2022-09-15T12:13:24.804Z,8.25
2022-09-15T12:15:52.481Z,6.90
2022-09-15T12:18:38.467Z,6.82
2022-09-15T12:21:29.791Z,6.38
2022-09-15T12:24:00.143Z,6.57
2022-09-15T12:26:27.640Z,5.90
2022-09-15T12:28:56.116Z,6.15
2022-09-15T12:31:40.027Z,5.88
2022-09-15T12:34:25.019Z,5.63
2022-09-15T12:37:06.502Z,5.80
2022-09-15T12:39:44.413Z,5.87
2022-09-15T12:42:18.545Z,6.00
2022-09-15T12:44:45.101Z,5.93
2022-09-15T12:47:34.986Z,6.00
2022-09-15T12:50:16.648Z,5.80
2022-09-15T12:52:56.483Z,4.45
2022-09-15T12:55:34.420Z,5.90
2022-09-15T12:58:10.289Z,5.18
2022-09-15T13:01:00.705Z,4.65
2022-09-15T13:06:31.045Z,4.78
2022-09-15T13:09:05.116Z,5.45
2022-09-15T13:11:36.791Z,4.97
2022-09-15T13:14:03.497Z,5.18
2022-09-15T13:16:48.598Z,4.88
2022-09-15T13:19:41.492Z,5.10
2022-09-15T13:22:11.101Z,5.68
2022-09-15T13:25:15.530Z,5.85
2022-09-15T13:27:55.635Z,5.97
2022-09-15T13:30:25.050Z,5.38
2022-09-15T13:32:59.326Z,4.95
2022-09-15T13:35:44.354Z,5.20
2022-09-15T13:38:40.107Z,5.13
2022-09-15T13:41:44.517Z,5.47
2022-09-15T13:44:52.333Z,5.57
2022-09-15T13:47:49.099Z,6.15
2022-09-15T13:50:31.014Z,6.25
2022-09-15T13:53:03.639Z,5.45
2022-09-15T13:55:38.506Z,4.93
2022-09-15T14:01:02.165Z,5.53
2022-09-15T14:03:37.332Z,5.43
2022-09-15T14:06:16.764Z,5.35
2022-09-15T14:08:47.485Z,4.70
2022-09-15T14:11:15.950Z,4.82
2022-09-15T14:13:46.611Z,5.03
2022-09-15T14:16:23.741Z,5.15
2022-09-15T14:18:51.523Z,4.95
2022-09-15T14:21:24.161Z,6.15
2022-09-15T14:23:58.085Z,6.10
2022-09-15T14:26:30.570Z,5.80
2022-09-15T14:29:03.601Z,5.20
2022-09-15T14:31:48.928Z,5.63
2022-09-15T14:34:19.576Z,4.78
2022-09-15T14:36:47.417Z,5.40
2022-09-15T14:39:25.675Z,5.28
2022-09-15T14:41:52.594Z,6.18
2022-09-15T14:47:20.538Z,5.57
2022-09-15T14:49:47.883Z,6.00
2022-09-15T14:52:28.742Z,5.90
2022-09-15T14:55:02.533Z,5.47
2022-09-15T14:57:37.150Z,5.28
2022-09-15T15:00:09.321Z,5.13
2022-09-15T15:02:56.285Z,5.68
2022-09-15T15:05:29.525Z,4.85
2022-09-15T15:07:57.391Z,5.15
2022-09-15T15:10:35.458Z,5.15
2022-09-15T15:13:12.786Z,5.10
2022-09-15T15:15:39.671Z,4.68
2022-09-15T15:18:35.227Z,4.78
2022-09-15T15:21:01.939Z,5.07
2022-09-15T15:23:28.642Z,5.00
2022-09-15T15:26:27.204Z,4.57
2022-09-15T15:28:53.829Z,4.43
2022-09-15T15:31:26.477Z,4.65
2022-09-15T15:34:05.172Z,4.68
2022-09-15T15:36:36.449Z,5.00
2022-09-15T15:39:06.375Z,4.65
2022-09-15T15:41:42.451Z,4.60
2022-09-15T15:44:15.087Z,4.40
2022-09-15T15:46:55.846Z,4.55
2022-09-15T15:49:29.109Z,4.60
2022-09-15T15:51:57.174Z,4.43
2022-09-15T15:54:24.782Z,4.53
2022-09-15T15:56:52.574Z,5.95
2022-09-15T15:59:19.703Z,4.82
2022-09-15T16:01:50.619Z,4.53
2022-09-15T16:04:17.335Z,4.95
2022-09-15T16:06:45.013Z,4.65
2022-09-15T16:09:14.660Z,4.80
2022-09-15T16:11:42.761Z,4.80
2022-09-15T16:14:13.369Z,4.68
2022-09-15T16:16:40.803Z,4.78
2022-09-15T16:19:08.424Z,5.03
2022-09-15T16:21:39.445Z,4.82
2022-09-15T16:24:10.392Z,4.70
2022-09-15T16:26:38.080Z,4.80
2022-09-15T16:29:04.950Z,4.50
2022-09-15T16:31:33.312Z,4.95
2022-09-15T16:34:00.182Z,4.75
2022-09-15T16:36:26.957Z,5.63
2022-09-15T16:38:54.251Z,5.25
2022-09-15T16:41:23.256Z,5.20
2022-09-15T16:43:49.945Z,5.00
2022-09-15T16:46:17.277Z,5.05
2022-09-15T16:48:44.104Z,5.25
2022-09-15T16:51:26.653Z,4.97
2022-09-15T16:53:56.774Z,5.20
2022-09-15T16:56:23.386Z,5.72
2022-09-15T16:58:54.803Z,5.40
2022-09-15T17:01:25.206Z,5.30
2022-09-15T17:03:51.888Z,5.93
2022-09-15T17:06:18.915Z,5.05
2022-09-15T17:08:45.768Z,5.32
2022-09-15T17:11:16.651Z,6.22
2022-09-15T17:13:44.471Z,5.00
2022-09-15T17:16:13.878Z,5.20
2022-09-15T17:18:40.725Z,5.25
2022-09-15T17:21:09.462Z,5.07
2022-09-15T17:23:38.879Z,4.90
2022-09-15T17:26:21.605Z,4.78
2022-09-15T17:28:48.755Z,4.90
2022-09-15T17:31:21.110Z,5.00
2022-09-15T17:33:49.282Z,4.93
2022-09-15T17:36:16.813Z,5.65
2022-09-15T17:38:45.282Z,5.70
2022-09-15T17:41:17.594Z,5.40
2022-09-15T17:43:44.535Z,5.65
2022-09-15T17:46:11.746Z,5.95
2022-09-15T17:48:38.936Z,5.90
2022-09-15T17:51:14.972Z,6.28
2022-09-15T17:53:41.568Z,5.65
2022-09-15T17:56:08.160Z,6.05
2022-09-15T17:58:34.747Z,5.55
2022-09-15T18:01:03.049Z,5.10
2022-09-15T18:03:34.778Z,5.13
2022-09-15T18:06:05.145Z,5.82
2022-09-15T18:08:33.131Z,6.10
2022-09-15T18:11:01.073Z,5.78
2022-09-15T18:13:32.142Z,5.88
2022-09-15T18:16:07.077Z,5.65
2022-09-15T18:18:34.147Z,5.75
2022-09-15T18:21:00.992Z,5.35
2022-09-15T18:23:30.717Z,5.47
2022-09-15T18:25:57.585Z,5.53
2022-09-15T18:28:24.278Z,5.70
2022-09-15T18:30:51.124Z,5.63
2022-09-15T18:33:23.707Z,6.10
2022-09-15T18:35:53.529Z,8.00
2022-09-15T18:38:21.715Z,5.75
2022-09-15T18:40:50.821Z,6.32
2022-09-15T18:43:17.565Z,6.00
2022-09-15T18:45:44.530Z,6.43
2022-09-15T18:48:13.133Z,5.90
2022-09-15T18:50:41.167Z,5.95
2022-09-15T18:53:07.814Z,6.70
2022-09-15T18:55:34.515Z,6.05
2022-09-15T18:58:01.451Z,6.50
2022-09-15T19:00:28.799Z,6.10
2022-09-15T19:03:00.061Z,6.75
2022-09-15T19:05:27.806Z,6.30
2022-09-15T19:07:55.265Z,5.80
2022-09-15T19:10:22.711Z,5.45
2022-09-15T19:12:49.564Z,5.00
2022-09-15T19:15:16.679Z,7.07
2022-09-15T19:17:43.931Z,5.40
2022-09-15T19:20:12.707Z,5.95
2022-09-15T19:22:40.073Z,4.60
2022-09-15T19:25:08.560Z,5.63
2022-09-15T19:27:35.837Z,5.10
2022-09-15T19:30:02.468Z,5.60
2022-09-15T19:32:29.211Z,4.90
2022-09-15T19:34:55.847Z,5.35
2022-09-15T19:37:22.820Z,5.05
2022-09-15T19:39:50.085Z,5.13
2022-09-15T19:42:17.204Z,5.38
2022-09-15T19:44:44.060Z,5.25
2022-09-15T19:47:10.767Z,5.82
2022-09-15T19:49:37.637Z,5.35
2022-09-15T19:52:06.299Z,5.15
2022-09-15T19:54:34.393Z,5.95
2022-09-15T19:57:01.367Z,5.43
2022-09-15T19:59:31.374Z,4.88
2022-09-15T20:01:59.597Z,5.15
2022-09-15T20:04:26.922Z,4.63
2022-09-15T20:06:53.689Z,5.28
2022-09-15T20:09:20.427Z,5.05
2022-09-15T20:11:47.132Z,5.03
2022-09-15T20:14:14.511Z,4.75
2022-09-15T20:16:41.558Z,5.68
2022-09-15T20:19:08.439Z,4.90
2022-09-15T20:21:52.267Z,5.30
2022-09-15T20:24:20.294Z,5.03
2022-09-15T20:26:47.451Z,5.00
2022-09-15T20:29:14.289Z,4.65
2022-09-15T20:31:41.636Z,5.10
2022-09-15T20:34:08.414Z,4.90
2022-09-15T20:36:36.727Z,5.03
2022-09-15T20:39:06.102Z,5.18
2022-09-15T20:41:32.842Z,5.55
2022-09-15T20:44:00.246Z,5.00
2022-09-15T20:46:29.269Z,5.10
2022-09-15T20:48:55.994Z,4.90
2022-09-15T20:51:31.408Z,5.10
2022-09-15T20:54:00.524Z,5.50
2022-09-15T20:56:28.496Z,4.95
2022-09-15T20:58:58.350Z,5.53
2022-09-15T21:01:26.447Z,5.65
2022-09-15T21:03:55.227Z,5.30
2022-09-15T21:06:24.068Z,5.30
2022-09-15T21:08:51.288Z,5.53
2022-09-15T21:11:20.239Z,5.30
2022-09-15T21:13:48.100Z,5.40
2022-09-15T21:16:18.430Z,5.32
2022-09-15T21:18:45.982Z,5.10
2022-09-15T21:21:15.286Z,5.50
2022-09-15T21:23:49.257Z,5.00
2022-09-15T21:26:24.656Z,5.13
2022-09-15T21:28:52.209Z,4.88
2022-09-15T21:31:22.173Z,5.47
2022-09-15T21:33:51.207Z,6.03
2022-09-15T21:36:28.037Z,5.43
2022-09-15T21:38:56.381Z,4.90
2022-09-15T21:41:26.282Z,5.20
2022-09-15T21:43:54.968Z,5.53
2022-09-15T21:46:24.897Z,5.95
2022-09-15T21:48:51.727Z,5.05
2022-09-15T21:51:24.241Z,5.25
2022-09-15T21:53:52.858Z,5.35
2022-09-15T21:56:19.535Z,5.60
2022-09-15T21:58:46.241Z,5.38
2022-09-15T22:01:14.642Z,5.90
2022-09-15T22:03:42.469Z,5.00
2022-09-15T22:06:13.147Z,5.57
2022-09-15T22:08:40.563Z,5.20
2022-09-15T22:11:08.523Z,5.45
2022-09-15T22:13:41.970Z,5.07
2022-09-15T22:16:14.948Z,5.50
2022-09-15T22:18:42.406Z,5.20
2022-09-15T22:21:20.301Z,5.10
2022-09-15T22:23:48.254Z,4.95
2022-09-15T22:26:17.891Z,5.10
2022-09-15T22:28:44.979Z,5.15
2022-09-15T22:31:13.950Z,5.60
2022-09-15T22:33:42.254Z,5.00
2022-09-15T22:36:14.252Z,5.35
2022-09-15T22:38:41.258Z,5.22
2022-09-15T22:41:12.043Z,5.10
2022-09-15T22:43:40.037Z,5.57
2022-09-15T22:46:07.766Z,5.35
2022-09-15T22:48:37.481Z,5.32
2022-09-15T22:51:06.901Z,4.90
2022-09-15T22:53:33.695Z,5.28
2022-09-15T22:56:29.647Z,5.43
2022-09-15T22:58:56.641Z,5.15
2022-09-15T23:01:26.380Z,5.22
2022-09-15T23:03:55.633Z,5.18
2022-09-15T23:06:23.970Z,5.15
2022-09-15T23:08:52.826Z,5.50
2022-09-15T23:11:20.217Z,5.20
2022-09-15T23:13:47.338Z,6.35
2022-09-15T23:16:13.999Z,5.47
2022-09-15T23:18:40.670Z,5.03
2022-09-15T23:21:11.883Z,5.10
2022-09-15T23:23:40.653Z,5.20
2022-09-15T23:26:10.102Z,5.15
2022-09-15T23:28:39.080Z,5.75
2022-09-15T23:31:06.526Z,5.60
2022-09-15T23:33:33.716Z,5.35
2022-09-15T23:36:01.673Z,5.10
2022-09-15T23:38:28.366Z,5.55
2022-09-15T23:40:54.993Z,5.13
2022-09-15T23:43:21.642Z,5.25
2022-09-15T23:45:48.389Z,5.10
2022-09-15T23:48:15.046Z,5.20
2022-09-15T23:50:42.019Z,5.03
2022-09-15T23:53:09.119Z,5.40
2022-09-15T23:55:36.605Z,4.85
2022-09-15T23:58:03.977Z,5.50
